sensor_id;sensor_type;location;lat;lon;timestamp;P1;P2;P0
72509;PMS5003;60532;56.114;40.350;2023-04-03T00:01:25;23.67;19.00;10.00
72509;PMS5003;60532;56.114;40.350;2023-04-03T00:03:26;20.33;18.67;10.33
72509;PMS5003;60532;56.114;40.350;2023-04-03T00:05:26;19.00;18.00;11.00
72509;PMS5003;60532;56.114;40.350;2023-04-03T00:07:27;26.00;19.33;10.33
72509;PMS5003;60532;56.114;40.350;2023-04-03T00:09:27;22.33;18.67;10.00
72509;PMS5003;60532;56.114;40.350;2023-04-03T00:11:28;20.00;18.67;10.67
72509;PMS5003;60532;56.114;40.350;2023-04-03T00:13:28;20.00;19.25;10.50
72509;PMS5003;60532;56.114;40.350;2023-04-03T00:15:28;19.00;16.00;10.00
72509;PMS5003;60532;56.114;40.350;2023-04-03T00:17:29;23.00;23.00;10.00
72509;PMS5003;60532;56.114;40.350;2023-04-03T00:19:29;19.00;17.67;10.00
72509;PMS5003;60532;56.114;40.350;2023-04-03T00:21:30;14.50;14.50;6.25
72509;PMS5003;60532;56.114;40.350;2023-04-03T00:23:31;15.40;15.40;8.40
72509;PMS5003;60532;56.114;40.350;2023-04-03T00:25:32;19.00;17.00;9.67
72509;PMS5003;60532;56.114;40.350;2023-04-03T00:27:32;19.67;15.33;7.67
72509;PMS5003;60532;56.114;40.350;2023-04-03T00:29:33;18.33;18.00;10.33
72509;PMS5003;60532;56.114;40.350;2023-04-03T00:31:33;23.33;18.67;9.33
72509;PMS5003;60532;56.114;40.350;2023-04-03T00:33:33;19.33;19.00;11.00
72509;PMS5003;60532;56.114;40.350;2023-04-03T00:35:34;22.33;17.67;9.67
72509;PMS5003;60532;56.114;40.350;2023-04-03T00:37:35;19.00;19.00;9.33
72509;PMS5003;60532;56.114;40.350;2023-04-03T00:39:35;15.00;15.00;10.67
72509;PMS5003;60532;56.114;40.350;2023-04-03T00:41:36;21.00;19.67;10.67
72509;PMS5003;60532;56.114;40.350;2023-04-03T00:43:36;27.67;24.33;13.33
72509;PMS5003;60532;56.114;40.350;2023-04-03T00:45:38;10.00;6.67;3.67
72509;PMS5003;60532;56.114;40.350;2023-04-03T00:47:39;20.50;19.50;10.75
72509;PMS5003;60532;56.114;40.350;2023-04-03T00:49:40;16.50;13.25;7.00
72509;PMS5003;60532;56.114;40.350;2023-04-03T00:51:41;23.00;19.00;9.00
72509;PMS5003;60532;56.114;40.350;2023-04-03T00:53:55;20.00;20.00;9.50
72509;PMS5003;60532;56.114;40.350;2023-04-03T00:55:57;17.50;17.50;10.00
72509;PMS5003;60532;56.114;40.350;2023-04-03T00:57:58;22.50;20.50;10.00
72509;PMS5003;60532;56.114;40.350;2023-04-03T01:00:03;22.75;16.75;10.25
72509;PMS5003;60532;56.114;40.350;2023-04-03T01:02:05;24.75;19.75;10.75
72509;PMS5003;60532;56.114;40.350;2023-04-03T01:04:05;19.67;18.67;10.67
72509;PMS5003;60532;56.114;40.350;2023-04-03T01:06:06;23.33;22.67;10.00
72509;PMS5003;60532;56.114;40.350;2023-04-03T01:08:06;14.33;11.00;2.00
72509;PMS5003;60532;56.114;40.350;2023-04-03T01:10:08;24.33;21.67;10.67
72509;PMS5003;60532;56.114;40.350;2023-04-03T01:12:52;19.00;16.50;7.00
72509;PMS5003;60532;56.114;40.350;2023-04-03T01:14:33;19.50;17.00;10.00
72509;PMS5003;60532;56.114;40.350;2023-04-03T01:16:33;18.00;17.67;9.33
72509;PMS5003;60532;56.114;40.350;2023-04-03T01:18:36;22.67;19.33;11.00
72509;PMS5003;60532;56.114;40.350;2023-04-03T01:22:44;21.00;19.00;9.00
72509;PMS5003;60532;56.114;40.350;2023-04-03T01:24:48;21.75;20.75;10.50
72509;PMS5003;60532;56.114;40.350;2023-04-03T01:26:49;18.67;18.67;11.00
72509;PMS5003;60532;56.114;40.350;2023-04-03T01:28:50;15.75;14.00;6.50
72509;PMS5003;60532;56.114;40.350;2023-04-03T01:33:03;20.50;18.00;10.50
72509;PMS5003;60532;56.114;40.350;2023-04-03T01:35:03;18.00;17.00;10.33
72509;PMS5003;60532;56.114;40.350;2023-04-03T01:37:04;20.33;19.33;11.33
72509;PMS5003;60532;56.114;40.350;2023-04-03T01:39:05;20.33;17.33;9.67
72509;PMS5003;60532;56.114;40.350;2023-04-03T01:41:05;18.67;18.67;11.00
72509;PMS5003;60532;56.114;40.350;2023-04-03T01:43:06;16.33;15.00;7.67
72509;PMS5003;60532;56.114;40.350;2023-04-03T01:45:06;18.00;18.00;10.00
72509;PMS5003;60532;56.114;40.350;2023-04-03T01:47:07;18.67;16.67;9.00
72509;PMS5003;60532;56.114;40.350;2023-04-03T01:49:07;18.67;14.00;7.67
72509;PMS5003;60532;56.114;40.350;2023-04-03T01:51:08;18.33;16.67;9.33
72509;PMS5003;60532;56.114;40.350;2023-04-03T01:53:09;15.00;15.00;9.00
72509;PMS5003;60532;56.114;40.350;2023-04-03T01:55:09;19.33;18.33;8.33
72509;PMS5003;60532;56.114;40.350;2023-04-03T01:57:10;13.67;12.00;6.33
72509;PMS5003;60532;56.114;40.350;2023-04-03T01:59:10;19.00;14.67;9.67
72509;PMS5003;60532;56.114;40.350;2023-04-03T02:01:11;19.33;15.67;9.33
72509;PMS5003;60532;56.114;40.350;2023-04-03T02:03:11;20.67;19.33;11.00
72509;PMS5003;60532;56.114;40.350;2023-04-03T02:05:12;21.67;18.67;8.33
72509;PMS5003;60532;56.114;40.350;2023-04-03T02:07:12;17.33;17.33;8.33
72509;PMS5003;60532;56.114;40.350;2023-04-03T02:09:12;22.67;18.00;9.00
72509;PMS5003;60532;56.114;40.350;2023-04-03T02:11:13;18.67;18.67;11.00
72509;PMS5003;60532;56.114;40.350;2023-04-03T02:13:13;22.00;16.33;7.00
72509;PMS5003;60532;56.114;40.350;2023-04-03T02:15:14;15.75;14.25;6.50
72509;PMS5003;60532;56.114;40.350;2023-04-03T02:17:15;18.00;17.33;9.00
72509;PMS5003;60532;56.114;40.350;2023-04-03T02:19:15;19.00;18.67;9.00
72509;PMS5003;60532;56.114;40.350;2023-04-03T02:21:16;18.33;17.67;9.00
72509;PMS5003;60532;56.114;40.350;2023-04-03T02:23:16;13.67;13.00;6.00
72509;PMS5003;60532;56.114;40.350;2023-04-03T02:25:17;17.33;15.33;7.00
72509;PMS5003;60532;56.114;40.350;2023-04-03T02:27:17;18.33;16.00;9.67
72509;PMS5003;60532;56.114;40.350;2023-04-03T02:29:18;18.67;18.00;10.33
72509;PMS5003;60532;56.114;40.350;2023-04-03T02:31:18;18.33;16.67;9.00
72509;PMS5003;60532;56.114;40.350;2023-04-03T02:33:19;18.00;16.00;9.00
72509;PMS5003;60532;56.114;40.350;2023-04-03T02:35:19;16.00;14.33;6.33
72509;PMS5003;60532;56.114;40.350;2023-04-03T02:37:20;17.67;14.00;9.00
72509;PMS5003;60532;56.114;40.350;2023-04-03T02:39:21;18.25;15.00;9.00
72509;PMS5003;60532;56.114;40.350;2023-04-03T02:41:21;16.00;14.33;7.00
72509;PMS5003;60532;56.114;40.350;2023-04-03T02:43:22;17.33;16.33;9.67
72509;PMS5003;60532;56.114;40.350;2023-04-03T02:45:22;15.67;14.33;7.00
72509;PMS5003;60532;56.114;40.350;2023-04-03T02:47:23;19.67;14.33;6.67
72509;PMS5003;60532;56.114;40.350;2023-04-03T02:49:23;18.00;16.00;8.33
72509;PMS5003;60532;56.114;40.350;2023-04-03T02:51:24;18.00;16.25;9.00
72509;PMS5003;60532;56.114;40.350;2023-04-03T02:53:24;18.67;15.00;9.67
72509;PMS5003;60532;56.114;40.350;2023-04-03T02:55:25;16.33;15.00;9.00
72509;PMS5003;60532;56.114;40.350;2023-04-03T02:57:26;18.33;15.00;8.33
72509;PMS5003;60532;56.114;40.350;2023-04-03T02:59:26;17.00;15.00;6.33
72509;PMS5003;60532;56.114;40.350;2023-04-03T03:01:27;14.50;12.75;6.50
72509;PMS5003;60532;56.114;40.350;2023-04-03T03:03:31;17.80;16.60;11.00
72509;PMS5003;60532;56.114;40.350;2023-04-03T03:05:32;20.25;18.75;9.50
72509;PMS5003;60532;56.114;40.350;2023-04-03T03:07:32;17.00;17.00;9.00
72509;PMS5003;60532;56.114;40.350;2023-04-03T03:09:33;9.75;9.75;4.50
72509;PMS5003;60532;56.114;40.350;2023-04-03T03:11:34;1.50;1.50;0.00
72509;PMS5003;60532;56.114;40.350;2023-04-03T03:13:34;18.67;18.33;11.00
72509;PMS5003;60532;56.114;40.350;2023-04-03T03:15:35;16.00;15.00;9.00
72509;PMS5003;60532;56.114;40.350;2023-04-03T03:17:35;16.00;16.00;8.25
72509;PMS5003;60532;56.114;40.350;2023-04-03T03:19:36;12.75;12.75;8.50
72509;PMS5003;60532;56.114;40.350;2023-04-03T03:21:36;18.25;14.25;5.00
72509;PMS5003;60532;56.114;40.350;2023-04-03T03:23:37;19.75;17.25;9.00
72509;PMS5003;60532;56.114;40.350;2023-04-03T03:25:40;22.00;19.25;10.00
72509;PMS5003;60532;56.114;40.350;2023-04-03T03:27:41;15.00;14.80;7.20
72509;PMS5003;60532;56.114;40.350;2023-04-03T03:29:42;20.25;18.00;8.75
72509;PMS5003;60532;56.114;40.350;2023-04-03T03:31:42;17.00;15.00;8.25
72509;PMS5003;60532;56.114;40.350;2023-04-03T03:33:42;16.25;14.75;7.25
72509;PMS5003;60532;56.114;40.350;2023-04-03T03:35:43;21.25;16.25;9.50
72509;PMS5003;60532;56.114;40.350;2023-04-03T03:37:44;19.75;18.00;10.00
72509;PMS5003;60532;56.114;40.350;2023-04-03T03:39:44;19.00;14.75;8.25
72509;PMS5003;60532;56.114;40.350;2023-04-03T03:41:45;18.25;15.25;7.50
72509;PMS5003;60532;56.114;40.350;2023-04-03T03:43:45;18.75;17.50;8.50
72509;PMS5003;60532;56.114;40.350;2023-04-03T03:45:49;19.50;17.50;10.75
72509;PMS5003;60532;56.114;40.350;2023-04-03T03:47:50;17.00;16.00;7.00
72509;PMS5003;60532;56.114;40.350;2023-04-03T03:49:50;15.75;15.75;8.00
72509;PMS5003;60532;56.114;40.350;2023-04-03T03:51:51;21.25;19.00;8.00
72509;PMS5003;60532;56.114;40.350;2023-04-03T03:53:51;20.25;16.00;8.50
72509;PMS5003;60532;56.114;40.350;2023-04-03T03:55:52;16.00;15.25;8.00
72509;PMS5003;60532;56.114;40.350;2023-04-03T03:57:52;15.25;12.75;6.50
72509;PMS5003;60532;56.114;40.350;2023-04-03T03:59:53;11.00;7.25;3.50
72509;PMS5003;60532;56.114;40.350;2023-04-03T04:01:54;17.25;16.75;6.75
72509;PMS5003;60532;56.114;40.350;2023-04-03T04:03:54;18.00;13.60;7.60
72509;PMS5003;60532;56.114;40.350;2023-04-03T04:05:55;15.75;12.50;7.50
72509;PMS5003;60532;56.114;40.350;2023-04-03T04:07:56;14.00;14.00;7.00
72509;PMS5003;60532;56.114;40.350;2023-04-03T04:09:56;12.00;11.00;7.00
72509;PMS5003;60532;56.114;40.350;2023-04-03T04:11:57;15.25;15.25;8.75
72509;PMS5003;60532;56.114;40.350;2023-04-03T04:13:57;16.80;13.60;7.20
72509;PMS5003;60532;56.114;40.350;2023-04-03T04:15:58;17.75;16.25;8.00
72509;PMS5003;60532;56.114;40.350;2023-04-03T04:17:58;15.25;13.25;7.25
72509;PMS5003;60532;56.114;40.350;2023-04-03T04:19:59;12.25;12.25;6.50
72509;PMS5003;60532;56.114;40.350;2023-04-03T04:22:02;11.00;10.40;7.00
72509;PMS5003;60532;56.114;40.350;2023-04-03T04:24:03;14.50;12.75;9.00
72509;PMS5003;60532;56.114;40.350;2023-04-03T04:26:04;16.00;14.00;8.00
72509;PMS5003;60532;56.114;40.350;2023-04-03T04:28:04;12.75;12.75;7.00
72509;PMS5003;60532;56.114;40.350;2023-04-03T04:30:05;16.50;13.75;7.00
72509;PMS5003;60532;56.114;40.350;2023-04-03T04:32:06;17.20;13.80;7.80
72509;PMS5003;60532;56.114;40.350;2023-04-03T04:34:06;16.50;13.50;7.00
72509;PMS5003;60532;56.114;40.350;2023-04-03T04:36:07;14.25;13.25;7.50
72509;PMS5003;60532;56.114;40.350;2023-04-03T04:38:07;18.25;14.25;8.00
72509;PMS5003;60532;56.114;40.350;2023-04-03T04:40:08;15.00;13.00;7.80
72509;PMS5003;60532;56.114;40.350;2023-04-03T04:42:09;4.00;4.00;3.40
72509;PMS5003;60532;56.114;40.350;2023-04-03T04:44:12;12.20;11.40;4.80
72509;PMS5003;60532;56.114;40.350;2023-04-03T04:46:13;17.00;13.75;7.00
72509;PMS5003;60532;56.114;40.350;2023-04-03T04:48:13;15.00;15.00;7.00
72509;PMS5003;60532;56.114;40.350;2023-04-03T04:50:14;14.00;12.00;7.00
72509;PMS5003;60532;56.114;40.350;2023-04-03T04:52:15;16.25;10.75;4.75
72509;PMS5003;60532;56.114;40.350;2023-04-03T04:54:15;15.00;12.00;7.00
72509;PMS5003;60532;56.114;40.350;2023-04-03T04:56:16;11.75;11.75;4.00
72509;PMS5003;60532;56.114;40.350;2023-04-03T04:58:16;15.50;14.00;8.00
72509;PMS5003;60532;56.114;40.350;2023-04-03T05:00:17;10.50;10.25;5.25
72509;PMS5003;60532;56.114;40.350;2023-04-03T05:02:18;12.80;12.40;6.40
72509;PMS5003;60532;56.114;40.350;2023-04-03T05:04:18;5.00;3.00;2.00
72509;PMS5003;60532;56.114;40.350;2023-04-03T05:06:22;13.75;12.00;6.00
72509;PMS5003;60532;56.114;40.350;2023-04-03T05:08:22;12.20;11.00;6.80
72509;PMS5003;60532;56.114;40.350;2023-04-03T05:10:23;12.25;11.00;6.00
72509;PMS5003;60532;56.114;40.350;2023-04-03T05:12:23;15.75;10.00;6.50
72509;PMS5003;60532;56.114;40.350;2023-04-03T05:14:24;8.50;8.00;4.50
72509;PMS5003;60532;56.114;40.350;2023-04-03T05:16:24;12.50;10.50;6.50
72509;PMS5003;60532;56.114;40.350;2023-04-03T05:18:25;10.80;10.80;5.60
72509;PMS5003;60532;56.114;40.350;2023-04-03T05:20:26;13.00;11.50;5.75
72509;PMS5003;60532;56.114;40.350;2023-04-03T05:22:26;10.25;9.00;4.00
72509;PMS5003;60532;56.114;40.350;2023-04-03T05:24:26;12.75;9.50;6.25
72509;PMS5003;60532;56.114;40.350;2023-04-03T05:26:27;10.75;9.75;6.75
72509;PMS5003;60532;56.114;40.350;2023-04-03T05:28:28;13.00;12.50;6.50
72509;PMS5003;60532;56.114;40.350;2023-04-03T05:30:28;12.00;9.75;6.25
72509;PMS5003;60532;56.114;40.350;2023-04-03T05:32:29;11.50;9.00;6.00
72509;PMS5003;60532;56.114;40.350;2023-04-03T05:34:29;9.75;9.75;5.75
72509;PMS5003;60532;56.114;40.350;2023-04-03T05:36:29;13.25;10.00;6.00
72509;PMS5003;60532;56.114;40.350;2023-04-03T05:38:30;12.00;11.00;7.00
72509;PMS5003;60532;56.114;40.350;2023-04-03T05:40:30;13.25;12.00;6.25
72509;PMS5003;60532;56.114;40.350;2023-04-03T05:42:31;9.50;9.50;6.00
72509;PMS5003;60532;56.114;40.350;2023-04-03T05:44:31;7.50;7.50;5.00
72509;PMS5003;60532;56.114;40.350;2023-04-03T05:46:32;10.50;10.00;6.00
72509;PMS5003;60532;56.114;40.350;2023-04-03T05:48:33;11.75;10.25;6.00
72509;PMS5003;60532;56.114;40.350;2023-04-03T05:50:33;9.00;9.00;5.75
72509;PMS5003;60532;56.114;40.350;2023-04-03T05:52:37;10.75;9.00;5.00
72509;PMS5003;60532;56.114;40.350;2023-04-03T05:54:38;8.20;7.80;4.60
72509;PMS5003;60532;56.114;40.350;2023-04-03T05:56:38;13.00;9.75;6.00
72509;PMS5003;60532;56.114;40.350;2023-04-03T05:58:39;9.50;7.00;4.75
72509;PMS5003;60532;56.114;40.350;2023-04-03T06:00:39;7.25;7.25;5.00
72509;PMS5003;60532;56.114;40.350;2023-04-03T06:02:40;9.25;9.00;5.25
72509;PMS5003;60532;56.114;40.350;2023-04-03T06:04:41;11.20;9.80;6.00
72509;PMS5003;60532;56.114;40.350;2023-04-03T06:06:55;13.25;10.75;5.00
72509;PMS5003;60532;56.114;40.350;2023-04-03T06:08:56;10.75;10.75;5.00
72509;PMS5003;60532;56.114;40.350;2023-04-03T06:10:56;10.33;9.33;5.67
72509;PMS5003;60532;56.114;40.350;2023-04-03T06:12:57;9.33;9.33;5.33
72509;PMS5003;60532;56.114;40.350;2023-04-03T06:14:57;11.33;11.33;6.33
72509;PMS5003;60532;56.114;40.350;2023-04-03T06:16:58;10.00;9.00;5.67
72509;PMS5003;60532;56.114;40.350;2023-04-03T06:18:59;9.00;9.00;5.75
72509;PMS5003;60532;56.114;40.350;2023-04-03T06:20:59;9.75;9.75;6.00
72509;PMS5003;60532;56.114;40.350;2023-04-03T06:23:01;9.60;8.60;5.60
72509;PMS5003;60532;56.114;40.350;2023-04-03T06:25:01;8.50;7.50;3.00
72509;PMS5003;60532;56.114;40.350;2023-04-03T06:27:02;11.20;10.20;5.80
72509;PMS5003;60532;56.114;40.350;2023-04-03T06:29:02;11.75;11.75;6.50
72509;PMS5003;60532;56.114;40.350;2023-04-03T06:31:03;11.50;11.00;7.25
72509;PMS5003;60532;56.114;40.350;2023-04-03T06:33:03;11.50;9.75;6.50
72509;PMS5003;60532;56.114;40.350;2023-04-03T06:35:04;12.00;12.00;7.00
72509;PMS5003;60532;56.114;40.350;2023-04-03T06:37:05;14.20;12.40;8.00
72509;PMS5003;60532;56.114;40.350;2023-04-03T06:39:06;11.00;11.00;7.00
72509;PMS5003;60532;56.114;40.350;2023-04-03T06:41:07;14.75;14.75;8.00
72509;PMS5003;60532;56.114;40.350;2023-04-03T06:43:07;17.25;15.75;8.25
72509;PMS5003;60532;56.114;40.350;2023-04-03T06:45:08;16.00;14.20;8.40
72509;PMS5003;60532;56.114;40.350;2023-04-03T06:47:14;15.80;12.80;7.20
72509;PMS5003;60532;56.114;40.350;2023-04-03T06:49:15;14.20;14.00;9.00
72509;PMS5003;60532;56.114;40.350;2023-04-03T06:51:26;12.50;10.75;6.50
72509;PMS5003;60532;56.114;40.350;2023-04-03T06:53:27;16.00;13.60;7.00
72509;PMS5003;60532;56.114;40.350;2023-04-03T06:55:27;15.75;12.50;8.00
72509;PMS5003;60532;56.114;40.350;2023-04-03T06:57:28;11.50;11.50;7.25
72509;PMS5003;60532;56.114;40.350;2023-04-03T06:59:28;16.25;13.25;7.50
72509;PMS5003;60532;56.114;40.350;2023-04-03T07:01:29;15.00;14.00;8.50
72509;PMS5003;60532;56.114;40.350;2023-04-03T07:03:29;12.40;10.60;7.60
72509;PMS5003;60532;56.114;40.350;2023-04-03T07:05:30;14.00;9.75;3.00
72509;PMS5003;60532;56.114;40.350;2023-04-03T07:07:31;12.00;10.60;6.00
72509;PMS5003;60532;56.114;40.350;2023-04-03T07:09:33;12.60;11.60;6.00
72509;PMS5003;60532;56.114;40.350;2023-04-03T07:11:33;16.50;12.00;6.25
72509;PMS5003;60532;56.114;40.350;2023-04-03T07:13:34;13.25;11.25;7.25
72509;PMS5003;60532;56.114;40.350;2023-04-03T07:15:35;12.20;10.20;5.00
72509;PMS5003;60532;56.114;40.350;2023-04-03T07:17:37;14.80;13.00;6.20
72509;PMS5003;60532;56.114;40.350;2023-04-03T07:19:37;10.75;9.25;5.25
72509;PMS5003;60532;56.114;40.350;2023-04-03T07:21:38;11.00;9.25;5.50
72509;PMS5003;60532;56.114;40.350;2023-04-03T07:23:39;11.75;9.50;5.00
72509;PMS5003;60532;56.114;40.350;2023-04-03T07:25:43;13.75;11.00;6.00
72509;PMS5003;60532;56.114;40.350;2023-04-03T07:27:44;12.40;10.60;5.40
72509;PMS5003;60532;56.114;40.350;2023-04-03T07:29:44;9.50;8.25;5.00
72509;PMS5003;60532;56.114;40.350;2023-04-03T07:31:45;11.25;10.50;5.00
72509;PMS5003;60532;56.114;40.350;2023-04-03T07:33:46;9.20;9.20;5.80
72509;PMS5003;60532;56.114;40.350;2023-04-03T07:35:46;9.25;9.25;4.75
72509;PMS5003;60532;56.114;40.350;2023-04-03T07:37:47;8.00;8.00;5.00
72509;PMS5003;60532;56.114;40.350;2023-04-03T07:39:48;10.50;10.00;5.50
72509;PMS5003;60532;56.114;40.350;2023-04-03T07:41:48;9.80;9.80;5.00
72509;PMS5003;60532;56.114;40.350;2023-04-03T07:43:49;14.80;11.00;5.80
72509;PMS5003;60532;56.114;40.350;2023-04-03T07:45:50;12.50;12.50;7.50
72509;PMS5003;60532;56.114;40.350;2023-04-03T07:47:51;9.00;9.00;6.00
72509;PMS5003;60532;56.114;40.350;2023-04-03T07:49:51;11.75;11.00;6.50
72509;PMS5003;60532;56.114;40.350;2023-04-03T07:51:52;11.50;10.50;5.00
72509;PMS5003;60532;56.114;40.350;2023-04-03T07:53:53;8.00;8.00;4.00
72509;PMS5003;60532;56.114;40.350;2023-04-03T07:55:53;9.25;7.00;5.25
72509;PMS5003;60532;56.114;40.350;2023-04-03T07:57:56;8.00;8.00;5.00
72509;PMS5003;60532;56.114;40.350;2023-04-03T07:59:56;9.25;9.25;7.00
72509;PMS5003;60532;56.114;40.350;2023-04-03T08:01:57;13.75;11.50;6.50
72509;PMS5003;60532;56.114;40.350;2023-04-03T08:03:57;6.00;5.00;3.00
72509;PMS5003;60532;56.114;40.350;2023-04-03T08:06:01;8.00;8.00;4.00
72509;PMS5003;60532;56.114;40.350;2023-04-03T08:08:04;14.60;12.00;6.00
72509;PMS5003;60532;56.114;40.350;2023-04-03T08:10:04;8.40;8.00;6.80
72509;PMS5003;60532;56.114;40.350;2023-04-03T08:12:05;8.20;7.40;3.40
72509;PMS5003;60532;56.114;40.350;2023-04-03T08:14:06;11.00;9.50;6.75
72509;PMS5003;60532;56.114;40.350;2023-04-03T08:16:11;13.80;12.00;7.20
72509;PMS5003;60532;56.114;40.350;2023-04-03T08:18:13;11.80;10.80;5.20
72509;PMS5003;60532;56.114;40.350;2023-04-03T08:20:14;16.40;11.40;7.00
72509;PMS5003;60532;56.114;40.350;2023-04-03T08:22:14;12.75;12.75;6.25
72509;PMS5003;60532;56.114;40.350;2023-04-03T08:24:16;15.00;11.80;6.40
72509;PMS5003;60532;56.114;40.350;2023-04-03T08:26:17;11.00;11.00;7.00
72509;PMS5003;60532;56.114;40.350;2023-04-03T08:28:18;14.40;13.80;7.00
72509;PMS5003;60532;56.114;40.350;2023-04-03T08:30:18;13.00;11.75;7.00
72509;PMS5003;60532;56.114;40.350;2023-04-03T08:32:19;14.00;12.50;6.25
72509;PMS5003;60532;56.114;40.350;2023-04-03T08:34:19;11.25;9.50;6.00
72509;PMS5003;60532;56.114;40.350;2023-04-03T08:36:21;8.50;8.50;5.50
72509;PMS5003;60532;56.114;40.350;2023-04-03T08:38:22;14.60;12.20;6.40
72509;PMS5003;60532;56.114;40.350;2023-04-03T08:40:23;11.00;11.00;5.75
72509;PMS5003;60532;56.114;40.350;2023-04-03T08:46:42;8.25;7.00;6.00
72509;PMS5003;60532;56.114;40.350;2023-04-03T08:48:46;11.00;8.60;5.00
72509;PMS5003;60532;56.114;40.350;2023-04-03T08:50:53;11.80;10.20;6.00
72509;PMS5003;60532;56.114;40.350;2023-04-03T08:52:58;8.40;8.00;4.40
72509;PMS5003;60532;56.114;40.350;2023-04-03T08:55:00;10.00;10.00;5.00
72509;PMS5003;60532;56.114;40.350;2023-04-03T08:57:04;10.60;7.20;6.00
72509;PMS5003;60532;56.114;40.350;2023-04-03T08:59:09;11.00;9.80;6.00
72509;PMS5003;60532;56.114;40.350;2023-04-03T09:01:25;10.40;7.20;5.60
72509;PMS5003;60532;56.114;40.350;2023-04-03T09:03:28;10.00;10.00;6.20
72509;PMS5003;60532;56.114;40.350;2023-04-03T09:05:39;12.60;11.40;5.00
72509;PMS5003;60532;56.114;40.350;2023-04-03T09:07:47;13.40;12.00;5.00
72509;PMS5003;60532;56.114;40.350;2023-04-03T09:09:49;10.20;8.60;5.00
72509;PMS5003;60532;56.114;40.350;2023-04-03T09:13:59;12.20;10.80;6.00
72509;PMS5003;60532;56.114;40.350;2023-04-03T09:16:01;10.00;10.00;6.00
72509;PMS5003;60532;56.114;40.350;2023-04-03T09:18:10;11.80;10.60;6.00
72509;PMS5003;60532;56.114;40.350;2023-04-03T09:20:20;10.40;8.80;5.60
72509;PMS5003;60532;56.114;40.350;2023-04-03T09:22:25;12.20;11.20;6.00
72509;PMS5003;60532;56.114;40.350;2023-04-03T09:24:26;11.20;10.00;4.20
72509;PMS5003;60532;56.114;40.350;2023-04-03T09:26:36;12.00;10.75;5.00
72509;PMS5003;60532;56.114;40.350;2023-04-03T09:28:41;12.60;11.60;5.80
72509;PMS5003;60532;56.114;40.350;2023-04-03T09:30:42;12.20;11.00;6.00
72509;PMS5003;60532;56.114;40.350;2023-04-03T09:32:46;12.25;11.50;6.00
72509;PMS5003;60532;56.114;40.350;2023-04-03T09:34:47;12.60;10.80;5.00
72509;PMS5003;60532;56.114;40.350;2023-04-03T09:36:53;11.20;10.00;5.40
72509;PMS5003;60532;56.114;40.350;2023-04-03T09:39:04;14.40;11.20;5.80
72509;PMS5003;60532;56.114;40.350;2023-04-03T09:41:16;14.00;12.40;6.40
72509;PMS5003;60532;56.114;40.350;2023-04-03T09:45:25;12.25;10.75;5.00
72509;PMS5003;60532;56.114;40.350;2023-04-03T09:47:27;10.20;10.00;5.80
72509;PMS5003;60532;56.114;40.350;2023-04-03T09:49:28;9.60;9.60;4.00
72509;PMS5003;60532;56.114;40.350;2023-04-03T09:51:29;13.00;10.75;5.00
72509;PMS5003;60532;56.114;40.350;2023-04-03T09:53:41;9.80;9.80;5.20
72509;PMS5003;60532;56.114;40.350;2023-04-03T09:55:42;10.80;9.60;5.60
72509;PMS5003;60532;56.114;40.350;2023-04-03T09:57:47;14.40;12.40;5.00
72509;PMS5003;60532;56.114;40.350;2023-04-03T09:59:58;12.20;10.60;6.00
72509;PMS5003;60532;56.114;40.350;2023-04-03T10:04:11;13.00;11.20;6.40
72509;PMS5003;60532;56.114;40.350;2023-04-03T10:06:21;11.40;8.80;5.00
72509;PMS5003;60532;56.114;40.350;2023-04-03T10:08:27;12.60;10.80;6.80
72509;PMS5003;60532;56.114;40.350;2023-04-03T10:10:28;13.60;11.20;5.40
72509;PMS5003;60532;56.114;40.350;2023-04-03T10:12:29;10.60;10.60;5.20
72509;PMS5003;60532;56.114;40.350;2023-04-03T10:14:35;11.20;10.20;5.00
72509;PMS5003;60532;56.114;40.350;2023-04-03T10:16:38;9.40;8.60;5.00
72509;PMS5003;60532;56.114;40.350;2023-04-03T10:20:43;11.75;9.50;5.75
72509;PMS5003;60532;56.114;40.350;2023-04-03T10:25:04;8.40;7.60;4.40
72509;PMS5003;60532;56.114;40.350;2023-04-03T10:27:13;12.60;9.20;5.00
72509;PMS5003;60532;56.114;40.350;2023-04-03T10:37:46;8.00;8.00;4.00
72509;PMS5003;60532;56.114;40.350;2023-04-03T10:42:18;8.60;8.60;5.00
72509;PMS5003;60532;56.114;40.350;2023-04-03T10:44:18;9.80;6.80;4.00
72509;PMS5003;60532;56.114;40.350;2023-04-03T10:46:27;10.60;7.00;3.60
72509;PMS5003;60532;56.114;40.350;2023-04-03T10:52:41;10.80;8.40;5.00
72509;PMS5003;60532;56.114;40.350;2023-04-03T10:54:56;11.00;11.00;5.20
72509;PMS5003;60532;56.114;40.350;2023-04-03T10:57:04;13.00;10.80;5.00
72509;PMS5003;60532;56.114;40.350;2023-04-03T11:01:23;14.20;12.20;5.40
72509;PMS5003;60532;56.114;40.350;2023-04-03T11:03:33;13.60;10.80;5.80
72509;PMS5003;60532;56.114;40.350;2023-04-03T11:07:40;15.25;10.50;5.75
72509;PMS5003;60532;56.114;40.350;2023-04-03T11:09:44;14.60;11.40;6.20
72509;PMS5003;60532;56.114;40.350;2023-04-03T11:11:47;10.40;9.60;5.00
72509;PMS5003;60532;56.114;40.350;2023-04-03T11:13:58;13.00;10.40;5.00
72509;PMS5003;60532;56.114;40.350;2023-04-03T11:16:01;13.20;10.60;4.00
72509;PMS5003;60532;56.114;40.350;2023-04-03T11:18:04;8.40;8.20;4.00
72509;PMS5003;60532;56.114;40.350;2023-04-03T11:20:20;12.80;10.20;5.40
72509;PMS5003;60532;56.114;40.350;2023-04-03T11:22:31;13.00;11.00;5.40
72509;PMS5003;60532;56.114;40.350;2023-04-03T11:24:33;12.00;10.00;6.00
72509;PMS5003;60532;56.114;40.350;2023-04-03T11:26:36;11.40;11.40;6.00
72509;PMS5003;60532;56.114;40.350;2023-04-03T11:28:38;13.40;10.20;6.40
72509;PMS5003;60532;56.114;40.350;2023-04-03T11:30:44;14.40;12.00;5.00
72509;PMS5003;60532;56.114;40.350;2023-04-03T11:34:53;14.20;11.80;6.20
72509;PMS5003;60532;56.114;40.350;2023-04-03T11:36:58;11.20;9.60;4.40
72509;PMS5003;60532;56.114;40.350;2023-04-03T11:39:23;12.60;11.00;5.60
72509;PMS5003;60532;56.114;40.350;2023-04-03T11:41:27;10.80;10.60;4.80
72509;PMS5003;60532;56.114;40.350;2023-04-03T11:43:29;9.60;9.60;5.60
72509;PMS5003;60532;56.114;40.350;2023-04-03T11:54:45;7.80;6.40;4.20
72509;PMS5003;60532;56.114;40.350;2023-04-03T11:56:46;10.60;8.80;5.40
72509;PMS5003;60532;56.114;40.350;2023-04-03T12:01:09;13.40;11.00;5.80
72509;PMS5003;60532;56.114;40.350;2023-04-03T12:05:29;13.00;11.80;6.00
72509;PMS5003;60532;56.114;40.350;2023-04-03T12:07:30;12.80;11.00;6.00
72509;PMS5003;60532;56.114;40.350;2023-04-03T12:11:32;10.50;9.00;4.50
72509;PMS5003;60532;56.114;40.350;2023-04-03T12:13:38;12.40;8.00;4.00
72509;PMS5003;60532;56.114;40.350;2023-04-03T12:17:40;10.75;10.75;6.75
72509;PMS5003;60532;56.114;40.350;2023-04-03T12:19:40;13.00;11.75;6.00
72509;PMS5003;60532;56.114;40.350;2023-04-03T12:26:04;12.80;10.20;5.60
72509;PMS5003;60532;56.114;40.350;2023-04-03T12:28:05;6.00;6.00;3.00
72509;PMS5003;60532;56.114;40.350;2023-04-03T12:34:18;13.25;12.75;6.00